sensor_id;sensor_type;location;lat;lon;timestamp;P1;durP1;ratioP1;P2;durP2;ratioP2
63955;SDS011;50131;52.084;5.228;2022-09-12T00:00:39;59.0;;;52.7;;
63955;SDS011;50131;52.084;5.228;2022-09-12T00:02:15;58.6;;;53.7;;
63955;SDS011;50131;52.084;5.228;2022-09-12T00:03:53;58.2;;;52.3;;
63955;SDS011;50131;52.084;5.228;2022-09-12T00:07:08;99.2;;;90.8;;
63955;SDS011;50131;52.084;5.228;2022-09-12T00:08:45;69.3;;;63.2;;
63955;SDS011;50131;52.084;5.228;2022-09-12T00:10:23;53.4;;;48.6;;
63955;SDS011;50131;52.084;5.228;2022-09-12T00:13:39;83.9;;;75.61;;
63955;SDS011;50131;52.084;5.228;2022-09-12T00:15:17;73.0;;;66.3;;
63955;SDS011;50131;52.084;5.228;2022-09-12T00:16:55;88.1;;;59.0;;
63955;SDS011;50131;52.084;5.228;2022-09-12T00:18:33;130.7;;;79.7;;
63955;SDS011;50131;52.084;5.228;2022-09-12T00:21:46;78.91;;;71.2;;
63955;SDS011;50131;52.084;5.228;2022-09-12T00:23:22;120.1;;;96.0;;
63955;SDS011;50131;52.084;5.228;2022-09-12T00:25:00;67.0;;;61.3;;
63955;SDS011;50131;52.084;5.228;2022-09-12T00:28:15;96.2;;;87.9;;
63955;SDS011;50131;52.084;5.228;2022-09-12T00:29:52;71.3;;;64.8;;
63955;SDS011;50131;52.084;5.228;2022-09-12T00:31:29;95.8;;;87.9;;
63955;SDS011;50131;52.084;5.228;2022-09-12T00:33:07;83.1;;;75.91;;
63955;SDS011;50131;52.084;5.228;2022-09-12T00:36:22;95.9;;;86.9;;
63955;SDS011;50131;52.084;5.228;2022-09-12T00:38:00;85.9;;;78.11;;
63955;SDS011;50131;52.084;5.228;2022-09-12T00:39:36;72.3;;;64.91;;
63955;SDS011;50131;52.084;5.228;2022-09-12T00:42:54;76.5;;;69.11;;
63955;SDS011;50131;52.084;5.228;2022-09-12T00:44:47;102.9;;;94.4;;
63955;SDS011;50131;52.084;5.228;2022-09-12T00:46:29;108.4;;;99.7;;
63955;SDS011;50131;52.084;5.228;2022-09-12T00:48:16;49.8;;;44.6;;
63955;SDS011;50131;52.084;5.228;2022-09-12T00:50:03;69.2;;;62.3;;
63955;SDS011;50131;52.084;5.228;2022-09-12T00:53:27;79.0;;;71.61;;
63955;SDS011;50131;52.084;5.228;2022-09-12T00:55:06;108.9;;;98.9;;
63955;SDS011;50131;52.084;5.228;2022-09-12T00:56:46;77.5;;;69.7;;
63955;SDS011;50131;52.084;5.228;2022-09-12T00:58:29;105.5;;;96.7;;
63955;SDS011;50131;52.084;5.228;2022-09-12T01:01:54;92.0;;;83.8;;
63955;SDS011;50131;52.084;5.228;2022-09-12T01:03:31;83.4;;;75.11;;
63955;SDS011;50131;52.084;5.228;2022-09-12T01:05:09;60.1;;;54.4;;
63955;SDS011;50131;52.084;5.228;2022-09-12T01:06:47;76.41;;;69.3;;
63955;SDS011;50131;52.084;5.228;2022-09-12T01:10:05;81.91;;;73.0;;
63955;SDS011;50131;52.084;5.228;2022-09-12T01:11:45;118.3;;;107.4;;
63955;SDS011;50131;52.084;5.228;2022-09-12T01:13:24;90.0;;;80.3;;
63955;SDS011;50131;52.084;5.228;2022-09-12T01:15:02;63.6;;;57.5;;
63955;SDS011;50131;52.084;5.228;2022-09-12T01:18:18;87.7;;;79.91;;
63955;SDS011;50131;52.084;5.228;2022-09-12T01:20:11;110.1;;;99.0;;
63955;SDS011;50131;52.084;5.228;2022-09-12T01:22:35;61.8;;;44.6;;
63955;SDS011;50131;52.084;5.228;2022-09-12T01:24:36;64.8;;;47.6;;
63955;SDS011;50131;52.084;5.228;2022-09-12T01:26:36;69.2;;;61.7;;
63955;SDS011;50131;52.084;5.228;2022-09-12T01:29:31;87.1;;;73.2;;
63955;SDS011;50131;52.084;5.228;2022-09-12T01:34:08;101.0;;;90.6;;
63955;SDS011;50131;52.084;5.228;2022-09-12T01:35:56;128.7;;;117.3;;
63955;SDS011;50131;52.084;5.228;2022-09-12T01:39:35;107.3;;;95.9;;
63955;SDS011;50131;52.084;5.228;2022-09-12T01:41:23;136.31;;;123.0;;
63955;SDS011;50131;52.084;5.228;2022-09-12T01:43:08;76.5;;;56.0;;
63955;SDS011;50131;52.084;5.228;2022-09-12T01:44:56;120.1;;;83.8;;
63955;SDS011;50131;52.084;5.228;2022-09-12T01:46:44;73.8;;;66.3;;
63955;SDS011;50131;52.084;5.228;2022-09-12T01:48:28;72.7;;;65.6;;
63955;SDS011;50131;52.084;5.228;2022-09-12T01:51:54;75.3;;;63.4;;
63955;SDS011;50131;52.084;5.228;2022-09-12T01:53:37;52.0;;;42.2;;
63955;SDS011;50131;52.084;5.228;2022-09-12T01:55:19;88.4;;;68.5;;
63955;SDS011;50131;52.084;5.228;2022-09-12T01:57:03;58.1;;;42.2;;
63955;SDS011;50131;52.084;5.228;2022-09-12T02:00:29;108.5;;;54.9;;
63955;SDS011;50131;52.084;5.228;2022-09-12T02:02:10;53.5;;;40.31;;
63955;SDS011;50131;52.084;5.228;2022-09-12T02:03:51;51.7;;;41.8;;
63955;SDS011;50131;52.084;5.228;2022-09-12T02:05:36;75.11;;;64.7;;
63955;SDS011;50131;52.084;5.228;2022-09-12T02:07:18;78.11;;;65.1;;
63955;SDS011;50131;52.084;5.228;2022-09-12T02:10:42;125.0;;;65.6;;
63955;SDS011;50131;52.084;5.228;2022-09-12T02:12:34;183.4;;;76.2;;
63955;SDS011;50131;52.084;5.228;2022-09-12T02:14:18;74.5;;;67.2;;
63955;SDS011;50131;52.084;5.228;2022-09-12T02:16:00;50.6;;;43.3;;
63955;SDS011;50131;52.084;5.228;2022-09-12T02:17:43;57.7;;;50.7;;
63955;SDS011;50131;52.084;5.228;2022-09-12T02:21:08;52.9;;;43.9;;
63955;SDS011;50131;52.084;5.228;2022-09-12T02:22:45;65.1;;;58.0;;
63955;SDS011;50131;52.084;5.228;2022-09-12T02:24:27;62.6;;;39.71;;
63955;SDS011;50131;52.084;5.228;2022-09-12T02:26:08;84.9;;;75.61;;
63955;SDS011;50131;52.084;5.228;2022-09-12T02:29:36;70.61;;;55.2;;
63955;SDS011;50131;52.084;5.228;2022-09-12T02:31:14;68.1;;;60.6;;
63955;SDS011;50131;52.084;5.228;2022-09-12T02:32:59;162.31;;;70.5;;
63955;SDS011;50131;52.084;5.228;2022-09-12T02:34:44;156.6;;;77.91;;
63955;SDS011;50131;52.084;5.228;2022-09-12T02:38:14;93.9;;;84.1;;
63955;SDS011;50131;52.084;5.228;2022-09-12T02:39:59;75.5;;;56.8;;
63955;SDS011;50131;52.084;5.228;2022-09-12T02:41:36;111.1;;;101.5;;
63955;SDS011;50131;52.084;5.228;2022-09-12T02:43:13;106.7;;;76.3;;
63955;SDS011;50131;52.084;5.228;2022-09-12T02:46:34;109.9;;;74.91;;
63955;SDS011;50131;52.084;5.228;2022-09-12T02:48:19;55.1;;;42.8;;
63955;SDS011;50131;52.084;5.228;2022-09-12T02:50:00;98.0;;;62.9;;
63955;SDS011;50131;52.084;5.228;2022-09-12T02:51:37;79.5;;;71.91;;
63955;SDS011;50131;52.084;5.228;2022-09-12T02:53:14;98.7;;;88.8;;
63955;SDS011;50131;52.084;5.228;2022-09-12T02:56:33;65.7;;;40.21;;
63955;SDS011;50131;52.084;5.228;2022-09-12T02:58:12;77.8;;;47.4;;
63955;SDS011;50131;52.084;5.228;2022-09-12T02:59:53;87.7;;;79.41;;
63955;SDS011;50131;52.084;5.228;2022-09-12T03:03:36;79.0;;;57.5;;
63955;SDS011;50131;52.084;5.228;2022-09-12T03:05:28;74.3;;;66.0;;
63955;SDS011;50131;52.084;5.228;2022-09-12T03:07:10;58.4;;;50.8;;
63955;SDS011;50131;52.084;5.228;2022-09-12T03:08:55;47.0;;;40.6;;
63955;SDS011;50131;52.084;5.228;2022-09-12T03:10:39;71.3;;;63.7;;
63955;SDS011;50131;52.084;5.228;2022-09-12T03:12:35;142.1;;;90.9;;
63955;SDS011;50131;52.084;5.228;2022-09-12T03:14:27;142.1;;;90.9;;
63955;SDS011;50131;52.084;5.228;2022-09-12T03:16:20;61.2;;;54.5;;
63955;SDS011;50131;52.084;5.228;2022-09-12T03:20:08;74.41;;;64.0;;
63955;SDS011;50131;52.084;5.228;2022-09-12T03:21:51;71.41;;;64.2;;
63955;SDS011;50131;52.084;5.228;2022-09-12T03:23:40;87.0;;;78.91;;
63955;SDS011;50131;52.084;5.228;2022-09-12T03:25:27;76.91;;;69.11;;
63955;SDS011;50131;52.084;5.228;2022-09-12T03:27:10;134.81;;;61.6;;
63955;SDS011;50131;52.084;5.228;2022-09-12T03:28:50;63.9;;;57.4;;
63955;SDS011;50131;52.084;5.228;2022-09-12T03:32:14;65.5;;;58.4;;
63955;SDS011;50131;52.084;5.228;2022-09-12T03:33:51;70.3;;;63.6;;
63955;SDS011;50131;52.084;5.228;2022-09-12T03:35:27;53.6;;;36.81;;
63955;SDS011;50131;52.084;5.228;2022-09-12T03:38:41;54.3;;;38.81;;
63955;SDS011;50131;52.084;5.228;2022-09-12T03:40:18;80.8;;;48.4;;
63955;SDS011;50131;52.084;5.228;2022-09-12T03:41:55;57.5;;;44.3;;
63955;SDS011;50131;52.084;5.228;2022-09-12T03:43:32;68.1;;;61.4;;
63955;SDS011;50131;52.084;5.228;2022-09-12T03:46:46;72.11;;;65.1;;
63955;SDS011;50131;52.084;5.228;2022-09-12T03:48:22;102.3;;;93.0;;
63955;SDS011;50131;52.084;5.228;2022-09-12T03:49:58;84.1;;;76.11;;
63955;SDS011;50131;52.084;5.228;2022-09-12T03:53:11;82.7;;;74.2;;
63955;SDS011;50131;52.084;5.228;2022-09-12T03:54:47;60.5;;;50.0;;
63955;SDS011;50131;52.084;5.228;2022-09-12T03:56:24;47.8;;;38.5;;
63955;SDS011;50131;52.084;5.228;2022-09-12T03:59:36;89.0;;;66.7;;
63955;SDS011;50131;52.084;5.228;2022-09-12T04:01:13;92.6;;;84.4;;
63955;SDS011;50131;52.084;5.228;2022-09-12T04:02:52;52.9;;;39.5;;
63955;SDS011;50131;52.084;5.228;2022-09-12T04:04:29;196.3;;;84.0;;
63955;SDS011;50131;52.084;5.228;2022-09-12T04:07:45;61.9;;;45.0;;
63955;SDS011;50131;52.084;5.228;2022-09-12T04:09:22;68.3;;;54.5;;
63955;SDS011;50131;52.084;5.228;2022-09-12T04:11:01;52.5;;;39.5;;
63955;SDS011;50131;52.084;5.228;2022-09-12T04:14:14;48.5;;;36.1;;
63955;SDS011;50131;52.084;5.228;2022-09-12T04:15:58;55.9;;;42.2;;
63955;SDS011;50131;52.084;5.228;2022-09-12T04:17:35;64.3;;;44.6;;
63955;SDS011;50131;52.084;5.228;2022-09-12T04:19:11;74.3;;;52.1;;
63955;SDS011;50131;52.084;5.228;2022-09-12T04:22:23;49.1;;;43.1;;
63955;SDS011;50131;52.084;5.228;2022-09-12T04:23:59;48.3;;;35.81;;
63955;SDS011;50131;52.084;5.228;2022-09-12T04:25:35;60.0;;;43.4;;
63955;SDS011;50131;52.084;5.228;2022-09-12T04:28:52;73.11;;;43.2;;
63955;SDS011;50131;52.084;5.228;2022-09-12T04:30:30;48.3;;;40.71;;
63955;SDS011;50131;52.084;5.228;2022-09-12T04:32:08;44.2;;;36.5;;
63955;SDS011;50131;52.084;5.228;2022-09-12T04:33:44;104.9;;;53.1;;
63955;SDS011;50131;52.084;5.228;2022-09-12T04:36:57;52.8;;;45.5;;
63955;SDS011;50131;52.084;5.228;2022-09-12T04:38:34;51.1;;;38.31;;
63955;SDS011;50131;52.084;5.228;2022-09-12T04:40:12;48.4;;;38.21;;
63955;SDS011;50131;52.084;5.228;2022-09-12T04:43:24;110.5;;;89.0;;
63955;SDS011;50131;52.084;5.228;2022-09-12T04:45:00;199.6;;;90.6;;
63955;SDS011;50131;52.084;5.228;2022-09-12T04:46:38;146.9;;;88.5;;
63955;SDS011;50131;52.084;5.228;2022-09-12T04:49:53;81.3;;;51.2;;
63955;SDS011;50131;52.084;5.228;2022-09-12T04:51:30;77.5;;;52.0;;
63955;SDS011;50131;52.084;5.228;2022-09-12T04:53:08;48.4;;;38.0;;
63955;SDS011;50131;52.084;5.228;2022-09-12T04:54:44;94.0;;;61.3;;
63955;SDS011;50131;52.084;5.228;2022-09-12T04:57:57;51.2;;;39.1;;
63955;SDS011;50131;52.084;5.228;2022-09-12T04:59:33;64.91;;;45.6;;
63955;SDS011;50131;52.084;5.228;2022-09-12T05:01:10;111.0;;;79.7;;
63955;SDS011;50131;52.084;5.228;2022-09-12T05:04:25;77.41;;;69.7;;
63955;SDS011;50131;52.084;5.228;2022-09-12T05:06:01;79.11;;;48.1;;
63955;SDS011;50131;52.084;5.228;2022-09-12T05:07:38;87.7;;;66.0;;
63955;SDS011;50131;52.084;5.228;2022-09-12T05:09:15;138.9;;;102.3;;
63955;SDS011;50131;52.084;5.228;2022-09-12T05:12:29;110.5;;;83.6;;
63955;SDS011;50131;52.084;5.228;2022-09-12T05:14:07;83.1;;;74.41;;
63955;SDS011;50131;52.084;5.228;2022-09-12T05:15:52;93.6;;;85.1;;
63955;SDS011;50131;52.084;5.228;2022-09-12T05:19:05;61.9;;;55.5;;
63955;SDS011;50131;52.084;5.228;2022-09-12T05:20:42;83.6;;;75.8;;
63955;SDS011;50131;52.084;5.228;2022-09-12T05:22:18;61.7;;;40.4;;
63955;SDS011;50131;52.084;5.228;2022-09-12T05:23:55;67.1;;;60.0;;
63955;SDS011;50131;52.084;5.228;2022-09-12T05:27:09;73.41;;;63.1;;
63955;SDS011;50131;52.084;5.228;2022-09-12T05:28:45;105.7;;;95.7;;
63955;SDS011;50131;52.084;5.228;2022-09-12T05:30:22;71.7;;;63.9;;
63955;SDS011;50131;52.084;5.228;2022-09-12T05:33:35;71.7;;;63.9;;
63955;SDS011;50131;52.084;5.228;2022-09-12T05:35:13;110.1;;;99.4;;
63955;SDS011;50131;52.084;5.228;2022-09-12T05:40:06;61.1;;;54.7;;
63955;SDS011;50131;52.084;5.228;2022-09-12T05:41:43;102.2;;;91.9;;
63955;SDS011;50131;52.084;5.228;2022-09-12T05:43:19;79.0;;;70.8;;
63955;SDS011;50131;52.084;5.228;2022-09-12T05:44:56;62.4;;;49.4;;
63955;SDS011;50131;52.084;5.228;2022-09-12T05:48:12;74.11;;;47.2;;
63955;SDS011;50131;52.084;5.228;2022-09-12T05:49:51;134.81;;;70.7;;
63955;SDS011;50131;52.084;5.228;2022-09-12T05:51:28;68.0;;;49.8;;
63955;SDS011;50131;52.084;5.228;2022-09-12T05:53:09;98.6;;;88.3;;
63955;SDS011;50131;52.084;5.228;2022-09-12T05:58:03;75.0;;;48.6;;
63955;SDS011;50131;52.084;5.228;2022-09-12T05:59:40;62.7;;;47.5;;
63955;SDS011;50131;52.084;5.228;2022-09-12T06:02:55;69.91;;;47.2;;
63955;SDS011;50131;52.084;5.228;2022-09-12T06:04:31;565.21;;;198.2;;
63955;SDS011;50131;52.084;5.228;2022-09-12T06:06:07;65.1;;;47.9;;
63955;SDS011;50131;52.084;5.228;2022-09-12T06:09:21;197.1;;;100.3;;
63955;SDS011;50131;52.084;5.228;2022-09-12T06:10:59;93.1;;;75.41;;
63955;SDS011;50131;52.084;5.228;2022-09-12T06:12:36;58.9;;;39.81;;
63955;SDS011;50131;52.084;5.228;2022-09-12T06:14:13;159.5;;;73.5;;
63955;SDS011;50131;52.084;5.228;2022-09-12T06:17:27;86.1;;;50.3;;
63955;SDS011;50131;52.084;5.228;2022-09-12T06:19:04;153.9;;;76.8;;
63955;SDS011;50131;52.084;5.228;2022-09-12T06:20:43;89.6;;;80.41;;
63955;SDS011;50131;52.084;5.228;2022-09-12T06:23:57;114.2;;;68.5;;
63955;SDS011;50131;52.084;5.228;2022-09-12T06:25:34;90.0;;;80.2;;
63955;SDS011;50131;52.084;5.228;2022-09-12T06:27:10;118.0;;;106.0;;
63955;SDS011;50131;52.084;5.228;2022-09-12T06:28:47;76.11;;;48.8;;
63955;SDS011;50131;52.084;5.228;2022-09-12T06:32:02;78.91;;;70.3;;
63955;SDS011;50131;52.084;5.228;2022-09-12T06:35:18;94.2;;;84.5;;
63955;SDS011;50131;52.084;5.228;2022-09-12T06:38:30;102.7;;;62.6;;
63955;SDS011;50131;52.084;5.228;2022-09-12T06:40:07;777.8;;;267.4;;
63955;SDS011;50131;52.084;5.228;2022-09-12T06:41:45;122.5;;;65.1;;
63955;SDS011;50131;52.084;5.228;2022-09-12T06:43:23;83.7;;;50.0;;
63955;SDS011;50131;52.084;5.228;2022-09-12T06:46:35;130.7;;;63.8;;
63955;SDS011;50131;52.084;5.228;2022-09-12T06:48:11;193.8;;;82.9;;
63955;SDS011;50131;52.084;5.228;2022-09-12T06:49:47;114.0;;;57.4;;
63955;SDS011;50131;52.084;5.228;2022-09-12T06:53:02;114.0;;;57.4;;
63955;SDS011;50131;52.084;5.228;2022-09-12T06:54:38;127.8;;;92.7;;
63955;SDS011;50131;52.084;5.228;2022-09-12T06:56:14;126.4;;;91.9;;
63955;SDS011;50131;52.084;5.228;2022-09-12T06:59:31;70.3;;;51.7;;
63955;SDS011;50131;52.084;5.228;2022-09-12T07:01:07;193.6;;;92.7;;
63955;SDS011;50131;52.084;5.228;2022-09-12T07:02:45;119.0;;;107.1;;
63955;SDS011;50131;52.084;5.228;2022-09-12T07:04:22;162.81;;;104.6;;
63955;SDS011;50131;52.084;5.228;2022-09-12T07:07:38;111.6;;;80.8;;
63955;SDS011;50131;52.084;5.228;2022-09-12T07:09:16;137.0;;;69.0;;
63955;SDS011;50131;52.084;5.228;2022-09-12T07:10:51;86.5;;;67.2;;
63955;SDS011;50131;52.084;5.228;2022-09-12T07:14:04;71.11;;;55.4;;
63955;SDS011;50131;52.084;5.228;2022-09-12T07:15:43;117.3;;;105.7;;
63955;SDS011;50131;52.084;5.228;2022-09-12T07:17:19;155.0;;;140.31;;
63955;SDS011;50131;52.084;5.228;2022-09-12T07:18:56;403.8;;;149.0;;
63955;SDS011;50131;52.084;5.228;2022-09-12T07:22:09;115.5;;;93.8;;
63955;SDS011;50131;52.084;5.228;2022-09-12T07:23:46;299.11;;;132.5;;
63955;SDS011;50131;52.084;5.228;2022-09-12T07:25:22;279.7;;;119.8;;
63955;SDS011;50131;52.084;5.228;2022-09-12T07:28:35;83.9;;;68.91;;
63955;SDS011;50131;52.084;5.228;2022-09-12T07:30:11;365.6;;;128.6;;
63955;SDS011;50131;52.084;5.228;2022-09-12T07:31:47;132.0;;;65.2;;
63955;SDS011;50131;52.084;5.228;2022-09-12T07:35:03;888.8;;;310.5;;
63955;SDS011;50131;52.084;5.228;2022-09-12T07:36:39;282.8;;;160.31;;
63955;SDS011;50131;52.084;5.228;2022-09-12T07:38:15;80.61;;;71.61;;
63955;SDS011;50131;52.084;5.228;2022-09-12T07:39:51;166.0;;;68.1;;
63955;SDS011;50131;52.084;5.228;2022-09-12T07:43:06;212.0;;;107.4;;
63955;SDS011;50131;52.084;5.228;2022-09-12T07:44:43;131.2;;;71.2;;
63955;SDS011;50131;52.084;5.228;2022-09-12T07:46:19;562.21;;;194.4;;
63955;SDS011;50131;52.084;5.228;2022-09-12T07:49:32;176.8;;;98.3;;
63955;SDS011;50131;52.084;5.228;2022-09-12T07:51:08;133.2;;;97.1;;
63955;SDS011;50131;52.084;5.228;2022-09-12T07:52:46;192.5;;;158.5;;
63955;SDS011;50131;52.084;5.228;2022-09-12T07:55:59;140.5;;;110.8;;
63955;SDS011;50131;52.084;5.228;2022-09-12T07:57:36;169.1;;;121.0;;
63955;SDS011;50131;52.084;5.228;2022-09-12T07:59:12;308.7;;;131.31;;
63955;SDS011;50131;52.084;5.228;2022-09-12T08:00:48;89.8;;;80.7;;
63955;SDS011;50131;52.084;5.228;2022-09-12T08:04:04;236.5;;;96.0;;
63955;SDS011;50131;52.084;5.228;2022-09-12T08:05:40;215.4;;;102.1;;
63955;SDS011;50131;52.084;5.228;2022-09-12T08:07:18;296.0;;;117.8;;
63955;SDS011;50131;52.084;5.228;2022-09-12T08:10:33;83.1;;;74.91;;
63955;SDS011;50131;52.084;5.228;2022-09-12T08:12:09;83.0;;;71.7;;
63955;SDS011;50131;52.084;5.228;2022-09-12T08:13:45;202.0;;;143.31;;
63955;SDS011;50131;52.084;5.228;2022-09-12T08:16:58;155.4;;;67.3;;
63955;SDS011;50131;52.084;5.228;2022-09-12T08:18:35;60.4;;;38.1;;
63955;SDS011;50131;52.084;5.228;2022-09-12T08:20:11;1225.41;;;380.7;;
63955;SDS011;50131;52.084;5.228;2022-09-12T08:21:47;323.3;;;141.4;;
63955;SDS011;50131;52.084;5.228;2022-09-12T08:25:00;489.0;;;179.1;;
63955;SDS011;50131;52.084;5.228;2022-09-12T08:26:36;135.81;;;61.8;;
63955;SDS011;50131;52.084;5.228;2022-09-12T08:28:13;485.2;;;168.6;;
63955;SDS011;50131;52.084;5.228;2022-09-12T08:31:25;971.2;;;337.4;;
63955;SDS011;50131;52.084;5.228;2022-09-12T08:33:02;684.2;;;227.1;;
63955;SDS011;50131;52.084;5.228;2022-09-12T08:34:38;406.3;;;159.9;;
63955;SDS011;50131;52.084;5.228;2022-09-12T08:37:53;151.5;;;88.7;;
63955;SDS011;50131;52.084;5.228;2022-09-12T08:39:29;163.4;;;112.5;;
63955;SDS011;50131;52.084;5.228;2022-09-12T08:41:07;399.5;;;205.4;;
63955;SDS011;50131;52.084;5.228;2022-09-12T08:42:51;393.2;;;149.1;;
63955;SDS011;50131;52.084;5.228;2022-09-12T08:46:34;715.6;;;252.4;;
63955;SDS011;50131;52.084;5.228;2022-09-12T08:48:19;184.8;;;137.5;;
63955;SDS011;50131;52.084;5.228;2022-09-12T08:49:58;793.9;;;265.2;;
63955;SDS011;50131;52.084;5.228;2022-09-12T08:51:39;592.5;;;215.6;;
63955;SDS011;50131;52.084;5.228;2022-09-12T08:53:17;454.8;;;187.4;;
63955;SDS011;50131;52.084;5.228;2022-09-12T08:56:36;578.21;;;216.8;;
63955;SDS011;50131;52.084;5.228;2022-09-12T08:58:15;1096.11;;;359.0;;
63955;SDS011;50131;52.084;5.228;2022-09-12T08:59:55;788.3;;;277.61;;
63955;SDS011;50131;52.084;5.228;2022-09-12T09:01:31;429.7;;;145.9;;
63955;SDS011;50131;52.084;5.228;2022-09-12T09:05:27;1640.6;;;520.0;;
63955;SDS011;50131;52.084;5.228;2022-09-12T09:07:20;385.5;;;124.3;;
63955;SDS011;50131;52.084;5.228;2022-09-12T09:09:27;616.6;;;207.9;;
63955;SDS011;50131;52.084;5.228;2022-09-12T09:11:19;223.8;;;91.1;;
63955;SDS011;50131;52.084;5.228;2022-09-12T09:13:11;1064.91;;;343.6;;
63955;SDS011;50131;52.084;5.228;2022-09-12T09:15:05;366.6;;;150.31;;
63955;SDS011;50131;52.084;5.228;2022-09-12T09:16:52;223.2;;;93.1;;
63955;SDS011;50131;52.084;5.228;2022-09-12T09:18:32;193.1;;;118.3;;
63955;SDS011;50131;52.084;5.228;2022-09-12T09:22:02;874.4;;;276.0;;
63955;SDS011;50131;52.084;5.228;2022-09-12T09:23:43;646.6;;;220.9;;
63955;SDS011;50131;52.084;5.228;2022-09-12T09:25:24;1170.5;;;385.2;;
63955;SDS011;50131;52.084;5.228;2022-09-12T09:27:14;853.9;;;275.7;;
63955;SDS011;50131;52.084;5.228;2022-09-12T09:29:03;977.9;;;307.61;;
63955;SDS011;50131;52.084;5.228;2022-09-12T09:30:47;854.6;;;270.8;;
63955;SDS011;50131;52.084;5.228;2022-09-12T09:34:08;329.6;;;124.1;;
63955;SDS011;50131;52.084;5.228;2022-09-12T09:35:53;1554.8;;;500.9;;
63955;SDS011;50131;52.084;5.228;2022-09-12T09:37:36;487.3;;;177.9;;
63955;SDS011;50131;52.084;5.228;2022-09-12T09:39:33;844.4;;;295.5;;
63955;SDS011;50131;52.084;5.228;2022-09-12T09:41:24;129.0;;;59.9;;
63955;SDS011;50131;52.084;5.228;2022-09-12T09:44:56;909.6;;;287.7;;
63955;SDS011;50131;52.084;5.228;2022-09-12T09:46:37;855.2;;;258.11;;
63955;SDS011;50131;52.084;5.228;2022-09-12T09:48:15;727.0;;;255.2;;
63955;SDS011;50131;52.084;5.228;2022-09-12T09:49:54;753.5;;;245.1;;
63955;SDS011;50131;52.084;5.228;2022-09-12T09:53:15;636.81;;;213.0;;
63955;SDS011;50131;52.084;5.228;2022-09-12T09:55:11;640.9;;;229.2;;
63955;SDS011;50131;52.084;5.228;2022-09-12T09:56:52;530.9;;;226.9;;
63955;SDS011;50131;52.084;5.228;2022-09-12T09:58:29;688.9;;;224.9;;
63955;SDS011;50131;52.084;5.228;2022-09-12T10:00:39;987.2;;;310.3;;
63955;SDS011;50131;52.084;5.228;2022-09-12T10:02:18;267.9;;;126.0;;
63955;SDS011;50131;52.084;5.228;2022-09-12T10:05:34;500.8;;;194.0;;
63955;SDS011;50131;52.084;5.228;2022-09-12T10:07:20;242.2;;;124.3;;
63955;SDS011;50131;52.084;5.228;2022-09-12T10:09:15;1111.8;;;370.0;;
63955;SDS011;50131;52.084;5.228;2022-09-12T10:10:55;1590.9;;;489.9;;
63955;SDS011;50131;52.084;5.228;2022-09-12T10:12:34;917.6;;;329.6;;
63955;SDS011;50131;52.084;5.228;2022-09-12T10:16:18;770.7;;;270.4;;
63955;SDS011;50131;52.084;5.228;2022-09-12T10:17:57;495.1;;;283.7;;
63955;SDS011;50131;52.084;5.228;2022-09-12T10:19:34;1239.41;;;383.9;;
63955;SDS011;50131;52.084;5.228;2022-09-12T10:21:14;223.7;;;144.9;;
63955;SDS011;50131;52.084;5.228;2022-09-12T10:24:35;1029.5;;;327.11;;
63955;SDS011;50131;52.084;5.228;2022-09-12T10:26:14;707.4;;;289.3;;
63955;SDS011;50131;52.084;5.228;2022-09-12T10:27:55;564.71;;;224.6;;
63955;SDS011;50131;52.084;5.228;2022-09-12T10:29:34;1210.41;;;408.0;;
63955;SDS011;50131;52.084;5.228;2022-09-12T10:33:03;532.9;;;212.3;;
63955;SDS011;50131;52.084;5.228;2022-09-12T10:34:43;238.0;;;117.1;;
63955;SDS011;50131;52.084;5.228;2022-09-12T10:36:20;537.8;;;284.11;;
63955;SDS011;50131;52.084;5.228;2022-09-12T10:37:58;670.6;;;282.91;;
63955;SDS011;50131;52.084;5.228;2022-09-12T10:41:13;761.8;;;238.5;;
63955;SDS011;50131;52.084;5.228;2022-09-12T10:42:50;265.8;;;139.5;;
63955;SDS011;50131;52.084;5.228;2022-09-12T10:44:30;733.7;;;299.61;;
63955;SDS011;50131;52.084;5.228;2022-09-12T10:46:26;322.11;;;217.7;;
63955;SDS011;50131;52.084;5.228;2022-09-12T10:50:17;480.0;;;247.9;;
63955;SDS011;50131;52.084;5.228;2022-09-12T10:51:56;900.7;;;349.6;;
63955;SDS011;50131;52.084;5.228;2022-09-12T10:53:50;186.5;;;135.81;;
63955;SDS011;50131;52.084;5.228;2022-09-12T10:55:30;406.4;;;321.0;;
63955;SDS011;50131;52.084;5.228;2022-09-12T10:57:15;1140.7;;;367.4;;
63955;SDS011;50131;52.084;5.228;2022-09-12T10:59:07;1015.8;;;438.1;;
63955;SDS011;50131;52.084;5.228;2022-09-12T11:00:58;1213.0;;;449.0;;
63955;SDS011;50131;52.084;5.228;2022-09-12T11:02:47;680.3;;;457.1;;
63955;SDS011;50131;52.084;5.228;2022-09-12T11:06:24;1149.0;;;445.4;;
63955;SDS011;50131;52.084;5.228;2022-09-12T11:08:18;1423.3;;;529.3;;
63955;SDS011;50131;52.084;5.228;2022-09-12T11:10:34;1273.5;;;638.4;;
63955;SDS011;50131;52.084;5.228;2022-09-12T11:12:22;880.0;;;469.5;;
63955;SDS011;50131;52.084;5.228;2022-09-12T11:14:11;953.6;;;506.1;;
63955;SDS011;50131;52.084;5.228;2022-09-12T11:16:15;660.3;;;437.9;;
63955;SDS011;50131;52.084;5.228;2022-09-12T11:18:03;1625.0;;;639.1;;
63955;SDS011;50131;52.084;5.228;2022-09-12T11:21:13;1078.5;;;597.21;;
63955;SDS011;50131;52.084;5.228;2022-09-12T11:23:37;1558.3;;;544.9;;
63955;SDS011;50131;52.084;5.228;2022-09-12T11:26:53;1163.5;;;616.21;;
63955;SDS011;50131;52.084;5.228;2022-09-12T11:28:41;1277.11;;;541.5;;
63955;SDS011;50131;52.084;5.228;2022-09-12T11:30:28;1336.5;;;613.81;;
63955;SDS011;50131;52.084;5.228;2022-09-12T11:32:23;1649.6;;;645.9;;
63955;SDS011;50131;52.084;5.228;2022-09-12T11:35:05;1999.9;;;765.0;;
63955;SDS011;50131;52.084;5.228;2022-09-12T11:36:55;1469.6;;;708.1;;
63955;SDS011;50131;52.084;5.228;2022-09-12T11:38:47;1130.7;;;603.31;;
63955;SDS011;50131;52.084;5.228;2022-09-12T11:40:28;1457.5;;;615.1;;
63955;SDS011;50131;52.084;5.228;2022-09-12T11:43:54;1709.7;;;675.9;;
63955;SDS011;50131;52.084;5.228;2022-09-12T11:45:38;1255.0;;;603.21;;
63955;SDS011;50131;52.084;5.228;2022-09-12T11:47:19;1462.1;;;574.71;;
63955;SDS011;50131;52.084;5.228;2022-09-12T11:48:58;1669.9;;;719.5;;
63955;SDS011;50131;52.084;5.228;2022-09-12T11:52:16;1479.9;;;642.6;;
63955;SDS011;50131;52.084;5.228;2022-09-12T11:54:00;1578.2;;;675.0;;
63955;SDS011;50131;52.084;5.228;2022-09-12T11:55:45;1399.5;;;660.0;;
63955;SDS011;50131;52.084;5.228;2022-09-12T11:57:29;1998.4;;;804.0;;
63955;SDS011;50131;52.084;5.228;2022-09-12T11:59:15;906.3;;;643.21;;
63955;SDS011;50131;52.084;5.228;2022-09-12T12:02:52;1636.3;;;690.0;;
63955;SDS011;50131;52.084;5.228;2022-09-12T12:04:43;978.5;;;753.1;;
63955;SDS011;50131;52.084;5.228;2022-09-12T12:06:35;1731.7;;;819.1;;
63955;SDS011;50131;52.084;5.228;2022-09-12T12:08:23;1273.2;;;718.6;;
63955;SDS011;50131;52.084;5.228;2022-09-12T12:10:02;1999.9;;;831.3;;
63955;SDS011;50131;52.084;5.228;2022-09-12T12:13:22;1706.0;;;784.5;;
63955;SDS011;50131;52.084;5.228;2022-09-12T12:15:05;1999.9;;;848.5;;
63955;SDS011;50131;52.084;5.228;2022-09-12T12:16:41;1001.1;;;730.3;;
63955;SDS011;50131;52.084;5.228;2022-09-12T12:18:21;1999.9;;;906.2;;
63955;SDS011;50131;52.084;5.228;2022-09-12T12:21:39;1384.1;;;849.5;;
63955;SDS011;50131;52.084;5.228;2022-09-12T12:23:22;883.1;;;790.1;;
63955;SDS011;50131;52.084;5.228;2022-09-12T12:25:03;1550.0;;;841.9;;
63955;SDS011;50131;52.084;5.228;2022-09-12T12:26:57;802.6;;;722.7;;
63955;SDS011;50131;52.084;5.228;2022-09-12T12:29:09;892.1;;;798.9;;
63955;SDS011;50131;52.084;5.228;2022-09-12T12:31:00;818.8;;;692.2;;
63955;SDS011;50131;52.084;5.228;2022-09-12T12:34:21;1007.4;;;681.2;;